Time;durP1;ratioP1;P1;durP2;ratioP2;P2;SDS_P1;SDS_P2;PMS_P1;PMS_P2;Temp;Humidity;BMP_temperature;BMP_pressure;BME280_temperature;BME280_humidity;BME280_pressure;Samples;Min_cycle;Max_cycle;Signal;HPM_P1;HPM_P2
2022/05/14 00:01:09;;;;;;;15.07;9.93;;;12.60;1.00;;;;;;5067908;28;20227;-68
2022/05/14 00:03:38;;;;;;;11.73;9.93;;;12.60;1.00;;;;;;5092338;28;20206;-68
2022/05/14 00:06:07;;;;;;;13.40;9.90;;;12.60;1.00;;;;;;5086007;28;20230;-68
2022/05/14 00:08:34;;;;;;;13.40;10.83;;;12.60;1.00;;;;;;5063078;28;20193;-68
2022/05/14 00:13:46;;;;;;;11.30;9.93;;;12.30;1.00;;;;;;5083541;28;20285;-67
2022/05/14 00:16:15;;;;;;;13.17;10.53;;;12.30;1.00;;;;;;5071834;28;20195;-68
2022/05/14 00:18:43;;;;;;;12.67;10.23;;;12.10;1.00;;;;;;5078440;28;20660;-68
2022/05/14 00:21:10;;;;;;;13.23;10.27;;;12.10;17.60;;;;;;5082999;28;20305;-68
2022/05/14 00:23:37;;;;;;;13.97;10.20;;;12.00;78.60;;;;;;5053678;28;20199;-68
2022/05/14 00:26:05;;;;;;;14.33;10.17;;;12.10;1.00;;;;;;5065227;28;20200;-68
2022/05/14 00:28:32;;;;;;;12.00;9.50;;;12.20;8.50;;;;;;5079784;28;20195;-68
2022/05/14 00:31:00;;;;;;;15.87;10.00;;;12.10;3.20;;;;;;5052679;28;20302;-68
2022/05/14 00:33:27;;;;;;;12.87;9.73;;;12.10;25.20;;;;;;5063085;28;20213;-68
2022/05/14 00:35:54;;;;;;;13.77;9.87;;;12.10;18.50;;;;;;5087992;28;20206;-67
2022/05/14 00:38:21;;;;;;;14.07;9.90;;;12.00;36.80;;;;;;5073864;28;20661;-68
2022/05/14 00:40:56;;;;;;;12.17;9.37;;;12.00;53.10;;;;;;5091965;28;20811;-68
2022/05/14 00:43:23;;;;;;;14.37;10.40;;;12.10;39.70;;;;;;5055570;28;20207;-67
2022/05/14 00:45:54;;;;;;;13.37;10.17;;;12.10;18.30;;;;;;5052282;28;20209;-67
2022/05/14 00:48:23;;;;;;;15.10;10.20;;;12.10;1.00;;;;;;5052207;28;20260;-68
2022/05/14 00:50:53;;;;;;;13.93;10.53;;;12.20;1.00;;;;;;5067487;28;20207;-68
2022/05/14 00:53:24;;;;;;;12.30;9.43;;;12.10;1.00;;;;;;5052744;28;20233;-68
2022/05/14 00:55:54;;;;;;;15.57;10.57;;;12.20;1.00;;;;;;5091396;28;20200;-68
2022/05/14 00:58:26;;;;;;;18.77;14.47;;;12.20;1.00;;;;;;5091361;28;20193;-68
2022/05/14 01:00:52;;;;;;;20.03;13.73;;;12.20;1.00;;;;;;5075189;28;20648;-68
2022/05/14 01:03:21;;;;;;;18.10;13.10;;;12.10;1.00;;;;;;5072367;28;20194;-68
2022/05/14 01:05:49;;;;;;;17.63;12.63;;;12.10;1.00;;;;;;5072101;28;20305;-68
2022/05/14 01:08:17;;;;;;;15.00;11.57;;;12.10;1.00;;;;;;5066596;28;20207;-68
2022/05/14 01:10:46;;;;;;;15.17;12.13;;;12.10;1.00;;;;;;5059282;28;20233;-68
2022/05/14 01:13:13;;;;;;;13.93;11.47;;;12.20;1.00;;;;;;5056090;28;20647;-68
2022/05/14 01:15:47;;;;;;;14.37;10.90;;;12.30;1.00;;;;;;5053519;28;20211;-68
2022/05/14 01:18:14;;;;;;;14.03;10.33;;;12.20;1.00;;;;;;5077664;28;20201;-68
2022/05/14 01:20:41;;;;;;;15.60;11.30;;;12.30;1.00;;;;;;5084011;28;20641;-68
2022/05/14 01:23:22;;;;;;;13.60;11.13;;;12.30;1.00;;;;;;5077176;28;20221;-68
2022/05/14 01:28:46;;;;;;;15.27;10.50;;;12.30;1.00;;;;;;5069367;28;20210;-68
2022/05/14 01:31:13;;;;;;;15.53;11.67;;;12.20;1.00;;;;;;5076246;28;20198;-68
2022/05/14 01:33:40;;;;;;;14.70;11.47;;;12.10;1.00;;;;;;5072011;28;20217;-68
2022/05/14 01:36:07;;;;;;;15.23;11.70;;;12.20;1.00;;;;;;5073540;28;20573;-68
2022/05/14 01:38:35;;;;;;;15.10;11.30;;;12.10;1.00;;;;;;5069231;28;20670;-68
2022/05/14 01:41:03;;;;;;;12.20;10.70;;;12.10;1.00;;;;;;5071840;28;20202;-67
2022/05/14 01:43:31;;;;;;;14.20;10.87;;;12.10;1.00;;;;;;5083605;28;20208;-68
2022/05/14 01:45:58;;;;;;;15.87;11.23;;;12.10;1.00;;;;;;5090178;28;20203;-68
2022/05/14 01:48:24;;;;;;;14.73;11.23;;;12.20;1.00;;;;;;5091613;28;20682;-68
2022/05/14 01:50:51;;;;;;;12.93;10.80;;;12.20;1.00;;;;;;5067207;28;20205;-68
2022/05/14 01:53:18;;;;;;;14.27;11.37;;;12.20;1.00;;;;;;5076111;28;20190;-68
2022/05/14 01:55:45;;;;;;;14.40;11.87;;;12.20;1.00;;;;;;5090495;28;20202;-68
2022/05/14 02:00:57;;;;;;;16.30;11.93;;;12.10;1.00;;;;;;5066879;28;20259;-68
2022/05/14 02:03:24;;;;;;;13.43;11.40;;;12.10;1.00;;;;;;5071352;28;20285;-68
2022/05/14 02:05:51;;;;;;;16.20;11.97;;;12.10;1.00;;;;;;5071284;28;20217;-68
2022/05/14 02:08:18;;;;;;;14.03;11.27;;;12.10;1.00;;;;;;5078036;28;20205;-68
2022/05/14 02:10:45;;;;;;;16.53;11.07;;;12.00;1.00;;;;;;5055867;28;20197;-68
2022/05/14 02:13:13;;;;;;;16.27;12.03;;;12.10;1.00;;;;;;5070756;28;20240;-68
2022/05/14 02:15:41;;;;;;;18.23;11.90;;;12.10;1.00;;;;;;5056736;28;20231;-68
2022/05/14 02:18:08;;;;;;;15.63;11.57;;;12.10;1.00;;;;;;5090784;28;20205;-68
2022/05/14 02:20:34;;;;;;;15.03;11.80;;;12.20;1.00;;;;;;5069571;28;20201;-68
2022/05/14 02:23:01;;;;;;;17.13;13.00;;;12.20;1.00;;;;;;5089812;28;20205;-68
2022/05/14 02:25:28;;;;;;;15.77;11.93;;;12.30;1.00;;;;;;5069791;28;20195;-68
2022/05/14 02:27:55;;;;;;;14.80;10.77;;;12.30;1.00;;;;;;5055891;28;20207;-68
2022/05/14 02:30:24;;;;;;;17.60;12.07;;;12.20;1.00;;;;;;5091310;28;20198;-68
2022/05/14 02:32:50;;;;;;;16.03;12.37;;;12.20;1.00;;;;;;5093987;28;20213;-68
2022/05/14 02:35:17;;;;;;;16.53;12.23;;;12.20;1.00;;;;;;5064189;28;20596;-69
2022/05/14 02:37:45;;;;;;;15.83;12.50;;;12.20;1.00;;;;;;5074964;28;20648;-68
2022/05/14 02:40:12;;;;;;;17.53;12.00;;;12.10;1.00;;;;;;5094305;28;20212;-68
2022/05/14 02:42:39;;;;;;;14.80;11.87;;;12.10;1.00;;;;;;5082938;28;20563;-68
2022/05/14 02:45:08;;;;;;;19.37;11.30;;;12.10;1.00;;;;;;5095346;28;20223;-68
2022/05/14 02:47:36;;;;;;;15.03;12.40;;;12.00;1.00;;;;;;5074208;28;20213;-68
2022/05/14 02:50:04;;;;;;;16.23;11.67;;;11.90;11.60;;;;;;5061185;28;20217;-68
2022/05/14 02:52:30;;;;;;;16.47;12.30;;;11.90;35.40;;;;;;5094242;28;20197;-68
2022/05/14 02:54:57;;;;;;;15.07;12.43;;;12.00;55.90;;;;;;5092982;28;20225;-68
2022/05/14 02:57:24;;;;;;;18.77;12.43;;;11.90;52.70;;;;;;5060744;28;20207;-68
2022/05/14 02:59:51;;;;;;;18.77;13.13;;;11.90;90.10;;;;;;5093513;28;20620;-68
2022/05/14 03:02:18;;;;;;;14.20;12.13;;;11.70;99.90;;;;;;5094844;28;20656;-68
2022/05/14 03:04:48;;;;;;;17.83;12.50;;;11.80;93.10;;;;;;5087591;28;20194;-68
2022/05/14 03:07:16;;;;;;;17.63;12.27;;;11.80;62.10;;;;;;5091944;28;20694;-68
2022/05/14 03:09:43;;;;;;;16.13;12.27;;;11.80;70.00;;;;;;5061935;28;20207;-68
2022/05/14 03:12:13;;;;;;;17.27;12.83;;;11.70;62.70;;;;;;5066243;28;20208;-68
2022/05/14 03:14:40;;;;;;;17.47;12.20;;;11.80;48.40;;;;;;5082064;28;20218;-68
2022/05/14 03:17:08;;;;;;;16.67;12.60;;;11.80;61.60;;;;;;5074750;28;20683;-68
2022/05/14 03:19:35;;;;;;;16.50;12.37;;;11.80;18.10;;;;;;5074699;28;20200;-68
2022/05/14 03:22:04;;;;;;;15.90;11.80;;;11.90;25.50;;;;;;5072875;28;20202;-68
2022/05/14 03:24:31;;;;;;;16.53;12.90;;;11.80;29.10;;;;;;5073757;28;20232;-68
2022/05/14 03:26:59;;;;;;;15.70;11.37;;;11.90;15.50;;;;;;5065460;28;20202;-68
2022/05/14 03:29:26;;;;;;;16.23;12.40;;;11.90;10.30;;;;;;5054541;28;20203;-68
2022/05/14 03:31:55;;;;;;;17.63;12.23;;;11.80;11.10;;;;;;5094062;28;20652;-68
2022/05/14 03:34:21;;;;;;;17.83;12.73;;;11.60;44.50;;;;;;5078526;28;20262;-68
2022/05/14 03:36:48;;;;;;;17.90;11.80;;;11.60;49.70;;;;;;5086541;28;20209;-68
2022/05/14 03:39:18;;;;;;;15.60;11.47;;;11.70;60.60;;;;;;5084462;28;20210;-68
2022/05/14 03:41:45;;;;;;;16.20;12.00;;;11.60;56.40;;;;;;5061327;28;20210;-67
2022/05/14 03:44:12;;;;;;;17.57;12.10;;;11.60;63.50;;;;;;5070873;28;20194;-68
2022/05/14 03:46:39;;;;;;;16.03;11.57;;;11.70;33.70;;;;;;5091803;28;20193;-68
2022/05/14 03:49:07;;;;;;;17.63;11.50;;;11.60;1.00;;;;;;5082709;28;20732;-68
2022/05/14 03:51:33;;;;;;;15.43;10.33;;;11.60;1.00;;;;;;5085148;28;20189;-68
2022/05/14 03:54:01;;;;;;;16.93;10.30;;;11.70;1.00;;;;;;5079313;28;20559;-68
2022/05/14 03:56:29;;;;;;;16.33;10.13;;;11.80;1.00;;;;;;5067181;28;20207;-68
2022/05/14 03:58:56;;;;;;;18.20;10.83;;;12.00;1.00;;;;;;5073050;28;20213;-68
2022/05/14 04:01:22;;;;;;;16.83;12.57;;;12.10;1.00;;;;;;5074301;28;20199;-68
2022/05/14 04:03:49;;;;;;;18.13;11.17;;;12.00;1.00;;;;;;5086937;28;20203;-68
2022/05/14 04:06:16;;;;;;;15.37;10.00;;;12.00;1.00;;;;;;5054154;28;20603;-68
2022/05/14 04:08:43;;;;;;;12.57;9.30;;;12.20;1.00;;;;;;5080020;28;20199;-68
2022/05/14 04:11:10;;;;;;;13.70;8.20;;;12.10;1.00;;;;;;5072787;28;20198;-68
2022/05/14 04:13:38;;;;;;;14.30;8.20;;;12.00;1.00;;;;;;5090464;28;20567;-68
2022/05/14 04:16:06;;;;;;;11.57;8.03;;;12.10;1.00;;;;;;5063130;28;20214;-68
2022/05/14 04:18:33;;;;;;;12.93;7.90;;;12.20;1.00;;;;;;5075314;28;20198;-68
2022/05/14 04:21:01;;;;;;;11.33;7.53;;;12.10;1.00;;;;;;5071073;28;20677;-68
2022/05/14 04:23:30;;;;;;;11.00;8.03;;;11.90;1.00;;;;;;5069332;28;20202;-68
2022/05/14 04:25:57;;;;;;;14.53;8.53;;;12.30;1.00;;;;;;5073968;28;20222;-68
2022/05/14 04:28:25;;;;;;;10.70;8.17;;;12.30;1.00;;;;;;5069725;28;20200;-68
2022/05/14 04:30:54;;;;;;;14.93;9.00;;;12.30;1.00;;;;;;5077194;28;20292;-68
2022/05/14 04:33:22;;;;;;;15.13;8.27;;;12.30;1.00;;;;;;5071799;28;20206;-68
2022/05/14 04:35:49;;;;;;;14.17;8.93;;;12.30;1.00;;;;;;5076012;28;20226;-68
2022/05/14 04:38:16;;;;;;;13.33;8.17;;;12.70;1.00;;;;;;5069911;28;20206;-68
2022/05/14 04:40:44;;;;;;;12.87;8.13;;;12.80;1.00;;;;;;5071222;28;20210;-68
2022/05/14 04:43:12;;;;;;;14.77;8.40;;;12.80;1.00;;;;;;5074600;28;20202;-68
2022/05/14 04:45:39;;;;;;;15.80;8.83;;;12.60;1.00;;;;;;5077043;28;20193;-68
2022/05/14 04:48:09;;;;;;;13.73;8.13;;;12.80;1.00;;;;;;5077994;28;20212;-68
2022/05/14 04:50:36;;;;;;;12.73;8.77;;;12.60;1.00;;;;;;5082660;28;20300;-67
2022/05/14 04:53:03;;;;;;;14.33;8.30;;;12.90;1.00;;;;;;5080608;28;20205;-67
2022/05/14 04:55:30;;;;;;;13.90;8.93;;;12.80;1.00;;;;;;5087609;28;20226;-68
2022/05/14 04:57:58;;;;;;;17.47;9.03;;;12.80;1.00;;;;;;5072133;28;20244;-68
2022/05/14 05:00:25;;;;;;;12.13;8.33;;;13.10;1.00;;;;;;5064441;28;20194;-68
2022/05/14 05:05:38;;;;;;;11.53;8.03;;;13.70;1.00;;;;;;5059190;28;20288;-68
2022/05/14 05:08:05;;;;;;;14.30;8.27;;;13.60;1.00;;;;;;5072690;28;20242;-68
2022/05/14 05:10:33;;;;;;;11.40;7.53;;;13.20;99.90;;;;;;5064210;28;20203;-68
2022/05/14 05:13:00;;;;;;;14.63;8.27;;;13.10;99.90;;;;;;5053378;28;20265;-68
2022/05/14 05:15:27;;;;;;;12.07;7.73;;;13.10;1.00;;;;;;5060040;28;20221;-68
2022/05/14 05:17:54;;;;;;;13.73;8.20;;;13.20;1.00;;;;;;5052728;28;20541;-68
2022/05/14 05:20:21;;;;;;;16.17;7.87;;;13.40;1.00;;;;;;5082521;28;20632;-68
2022/05/14 05:22:50;;;;;;;13.37;7.33;;;13.40;1.00;;;;;;5072992;28;20670;-67
2022/05/14 05:25:17;;;;;;;16.67;7.60;;;13.70;1.00;;;;;;5080745;28;20247;-68
2022/05/14 05:27:44;;;;;;;12.53;7.00;;;13.60;99.90;;;;;;5070064;28;20198;-68
2022/05/14 05:30:11;;;;;;;13.03;7.13;;;13.60;99.90;;;;;;5071404;28;20543;-67
2022/05/14 05:32:38;;;;;;;12.33;6.40;;;13.60;1.00;;;;;;5072195;28;20317;-68
2022/05/14 05:35:06;;;;;;;11.50;6.77;;;13.80;99.90;;;;;;5057022;28;20266;-68
2022/05/14 05:37:34;;;;;;;11.73;7.07;;;13.70;47.10;;;;;;5066738;28;20225;-67
2022/05/14 05:40:03;;;;;;;10.73;7.23;;;13.90;1.00;;;;;;5089625;28;20198;-68
2022/05/14 05:42:30;;;;;;;13.77;7.23;;;14.00;1.00;;;;;;5085325;28;20243;-68
2022/05/14 05:44:57;;;;;;;10.53;6.00;;;13.90;1.00;;;;;;5058844;28;20238;-68
2022/05/14 05:47:24;;;;;;;11.93;6.53;;;14.10;1.00;;;;;;5088882;28;20229;-68
2022/05/14 05:49:51;;;;;;;12.63;6.43;;;14.30;1.00;;;;;;5090562;28;20412;-68
2022/05/14 05:52:18;;;;;;;13.97;6.53;;;14.20;99.90;;;;;;5090710;28;20560;-68
2022/05/14 05:57:32;;;;;;;11.60;7.07;;;14.40;10.30;;;;;;5086122;28;20204;-68
2022/05/14 06:00:00;;;;;;;12.60;6.33;;;14.40;1.00;;;;;;5064740;28;20206;-68
2022/05/14 06:02:27;;;;;;;9.17;6.50;;;14.30;1.00;;;;;;5078672;28;20202;-68
2022/05/14 06:04:53;;;;;;;10.87;6.33;;;14.20;1.00;;;;;;5070774;28;20203;-68
2022/05/14 06:07:20;;;;;;;13.47;6.00;;;15.20;1.00;;;;;;5061295;28;20613;-68
2022/05/14 06:09:48;;;;;;;14.23;6.77;;;15.20;1.00;;;;;;5063842;28;20650;-68
2022/05/14 06:12:15;;;;;;;12.70;7.30;;;15.10;99.90;;;;;;5063144;28;20185;-68
2022/05/14 06:14:44;;;;;;;12.40;5.77;;;15.20;1.00;;;;;;5077901;28;20233;-68
2022/05/14 06:17:12;;;;;;;12.30;5.80;;;15.00;1.00;;;;;;5070226;28;20209;-68
2022/05/14 06:19:39;;;;;;;11.40;5.90;;;15.00;1.00;;;;;;5073459;28;20193;-68
2022/05/14 06:22:06;;;;;;;9.07;6.00;;;14.90;1.00;;;;;;5059860;28;20203;-68
2022/05/14 06:24:33;;;;;;;13.10;5.97;;;14.90;1.00;;;;;;5053970;28;20557;-68
2022/05/14 06:27:00;;;;;;;12.90;6.27;;;15.00;1.00;;;;;;5075527;28;20640;-68
2022/05/14 06:29:27;;;;;;;15.40;6.07;;;14.90;99.90;;;;;;5071758;28;20592;-68
2022/05/14 06:31:55;;;;;;;14.20;5.80;;;15.00;99.90;;;;;;5071137;28;20279;-68
2022/05/14 06:34:22;;;;;;;13.00;5.70;;;15.10;99.90;;;;;;5071340;28;20207;-68
2022/05/14 06:36:51;;;;;;;9.17;5.97;;;15.20;99.90;;;;;;5066553;28;20248;-68
2022/05/14 06:39:18;;;;;;;7.07;5.20;;;15.30;99.90;;;;;;5068672;28;20615;-68
2022/05/14 06:41:45;;;;;;;11.57;5.97;;;15.30;1.00;;;;;;5064477;28;20211;-68
2022/05/14 06:44:12;;;;;;;10.03;5.30;;;15.60;1.00;;;;;;5051017;28;20203;-68
2022/05/14 06:46:39;;;;;;;8.97;5.47;;;15.50;1.00;;;;;;5065197;28;20263;-68
2022/05/14 06:49:08;;;;;;;12.20;6.67;;;15.50;1.00;;;;;;5063852;28;20214;-68
2022/05/14 06:51:35;;;;;;;14.70;6.30;;;15.40;1.00;;;;;;5073013;28;20594;-68
2022/05/14 06:54:05;;;;;;;8.87;5.60;;;15.50;99.90;;;;;;5091246;28;20621;-69
2022/05/14 06:56:34;;;;;;;11.90;5.27;;;15.50;1.00;;;;;;5065936;28;20296;-68
2022/05/14 06:59:02;;;;;;;8.77;5.20;;;15.60;1.00;;;;;;5078539;28;20255;-68
2022/05/14 07:01:30;;;;;;;10.67;5.37;;;15.50;1.00;;;;;;5089730;28;20198;-68
2022/05/14 07:06:46;;;;;;;14.33;5.87;;;15.70;1.00;;;;;;5052965;28;20202;-68
2022/05/14 07:09:15;;;;;;;13.00;8.17;;;15.60;1.00;;;;;;5060715;28;20247;-68
2022/05/14 07:11:44;;;;;;;11.80;5.47;;;15.80;1.00;;;;;;5088795;28;20660;-68
2022/05/14 07:14:12;;;;;;;12.53;5.10;;;15.90;1.00;;;;;;5067410;28;20296;-68
2022/05/14 07:16:39;;;;;;;12.00;5.63;;;16.00;1.00;;;;;;5054497;28;20233;-68
2022/05/14 07:19:07;;;;;;;15.97;5.93;;;15.90;1.00;;;;;;5060915;28;20202;-68
2022/05/14 07:21:36;;;;;;;11.10;5.27;;;15.80;99.90;;;;;;5062624;28;20712;-68
2022/05/14 07:24:07;;;;;;;16.37;5.93;;;15.80;1.00;;;;;;5059182;28;20207;-68
2022/05/14 07:26:35;;;;;;;11.10;5.67;;;15.80;1.00;;;;;;5068770;28;20203;-68
2022/05/14 07:29:06;;;;;;;8.93;5.23;;;16.20;1.00;;;;;;5064092;28;20210;-68
2022/05/14 07:31:34;;;;;;;13.43;5.60;;;16.30;1.00;;;;;;5068578;28;20210;-68
2022/05/14 07:34:01;;;;;;;13.37;6.00;;;16.40;95.10;;;;;;5064030;28;20236;-68
2022/05/14 07:36:30;;;;;;;11.80;5.60;;;16.30;99.90;;;;;;5063470;28;20223;-68
2022/05/14 07:39:02;;;;;;;15.83;5.60;;;16.40;99.90;;;;;;5064526;28;20236;-68
2022/05/14 07:41:31;;;;;;;13.70;5.90;;;16.50;1.00;;;;;;5063151;28;20665;-68
2022/05/14 07:44:00;;;;;;;13.13;5.60;;;16.60;1.00;;;;;;5062225;28;20206;-68
2022/05/14 07:46:33;;;;;;;12.80;6.15;;;16.70;1.00;;;;;;5065065;28;20242;-68
2022/05/14 07:49:04;;;;;;;13.20;5.50;;;16.50;1.00;;;;;;5064513;28;20648;-68
2022/05/14 07:51:31;;;;;;;12.30;5.60;;;16.70;1.00;;;;;;5067311;28;20547;-67
2022/05/14 07:53:58;;;;;;;18.17;5.73;;;16.80;1.00;;;;;;5070495;28;20272;-68
2022/05/14 07:56:25;;;;;;;12.05;5.90;;;16.80;1.00;;;;;;5063385;28;20321;-68
2022/05/14 07:58:53;;;;;;;12.50;5.50;;;17.10;1.00;;;;;;5067219;28;20606;-68
2022/05/14 08:01:20;;;;;;;13.55;6.05;;;17.10;1.00;;;;;;5057648;28;20226;-68
2022/05/14 08:03:48;;;;;;;15.90;5.68;;;17.20;1.00;;;;;;5071861;28;20210;-68
2022/05/14 08:06:17;;;;;;;10.30;5.38;;;17.40;99.90;;;;;;5057494;28;20206;-68
2022/05/14 08:08:44;;;;;;;18.00;6.00;;;17.50;99.90;;;;;;5066145;28;20210;-67
2022/05/14 08:11:12;;;;;;;11.32;5.22;;;17.30;1.00;;;;;;5069548;28;20206;-67
2022/05/14 08:13:39;;;;;;;12.15;5.05;;;17.30;15.70;;;;;;5068460;28;20248;-69
2022/05/14 08:16:10;;;;;;;11.93;5.30;;;17.30;4.20;;;;;;5061558;28;20214;-68
2022/05/14 08:18:37;;;;;;;16.27;5.85;;;17.10;1.00;;;;;;5067639;28;20656;-67
2022/05/14 08:26:34;;;;;;;14.98;5.40;;;17.30;99.90;;;;;;5063659;28;20672;-67
2022/05/14 08:29:02;;;;;;;10.82;5.50;;;17.50;1.00;;;;;;5060673;28;20210;-67
2022/05/14 08:31:30;;;;;;;16.23;5.85;;;17.50;1.00;;;;;;5065074;28;20203;-67
2022/05/14 08:33:57;;;;;;;14.32;5.47;;;17.40;1.00;;;;;;5063878;28;20829;-67
2022/05/14 08:36:25;;;;;;;14.02;5.40;;;17.70;1.00;;;;;;5063858;28;20684;-67
2022/05/14 08:38:53;;;;;;;16.38;6.07;;;17.60;1.00;;;;;;5061437;28;20234;-67
2022/05/14 08:41:21;;;;;;;11.32;5.40;;;17.80;1.00;;;;;;5067643;28;20210;-67
2022/05/14 08:43:51;;;;;;;11.90;5.30;;;17.60;1.00;;;;;;5064060;28;20230;-67
2022/05/14 08:46:20;;;;;;;14.43;6.00;;;18.00;1.00;;;;;;5059767;28;20269;-67
2022/05/14 08:48:52;;;;;;;12.00;5.20;;;17.90;99.90;;;;;;5066568;28;20268;-67
2022/05/14 08:51:22;;;;;;;11.43;5.18;;;18.30;99.90;;;;;;5064045;28;20234;-67
2022/05/14 08:53:50;;;;;;;11.65;5.85;;;18.60;99.90;;;;;;5066155;28;20263;-67
2022/05/14 08:56:27;;;;;;;18.20;4.95;;;19.00;1.00;;;;;;5059465;28;20269;-67
2022/05/14 08:59:13;;;;;;;12.65;5.57;;;18.80;1.00;;;;;;5062782;28;20210;-67
2022/05/14 09:01:42;;;;;;;14.05;5.15;;;18.60;1.00;;;;;;5058444;28;20245;-67
2022/05/14 09:04:12;;;;;;;12.05;4.90;;;19.00;1.00;;;;;;5066824;28;20206;-67
2022/05/14 09:06:41;;;;;;;10.82;4.97;;;19.30;1.00;;;;;;5059809;28;20203;-68
2022/05/14 09:09:09;;;;;;;12.13;4.88;;;19.80;99.90;;;;;;5066244;28;20207;-67
2022/05/14 09:11:41;;;;;;;12.52;5.18;;;19.80;99.90;;;;;;5057610;28;20290;-67
2022/05/14 09:14:19;;;;;;;16.40;6.20;;;19.60;26.00;;;;;;5059050;28;20207;-67
2022/05/14 09:16:50;;;;;;;10.70;5.05;;;19.20;99.90;;;;;;5064078;28;20279;-67
2022/05/14 09:19:20;;;;;;;11.85;5.03;;;18.80;99.90;;;;;;5059390;28;20210;-67
2022/05/14 09:21:54;;;;;;;10.43;4.30;;;18.30;99.90;;;;;;5064465;28;20234;-67
2022/05/14 09:24:25;;;;;;;11.23;4.82;;;18.20;1.00;;;;;;5065625;28;20202;-67
2022/05/14 09:26:54;;;;;;;17.20;5.35;;;18.10;1.00;;;;;;5064962;28;20214;-67
2022/05/14 09:29:27;;;;;;;11.57;4.60;;;17.90;1.00;;;;;;5071059;28;20536;-67
2022/05/14 09:31:58;;;;;;;11.32;4.65;;;18.10;1.00;;;;;;5068902;28;20652;-67
2022/05/14 09:34:28;;;;;;;10.93;4.40;;;18.40;1.00;;;;;;5062403;28;20675;-67
2022/05/14 09:37:01;;;;;;;12.70;4.60;;;18.50;1.00;;;;;;5068799;28;20313;-67
2022/05/14 09:39:28;;;;;;;15.43;4.97;;;18.40;1.00;;;;;;5069371;28;20202;-67
2022/05/14 09:41:57;;;;;;;15.77;5.68;;;18.50;1.00;;;;;;5056899;28;20698;-67
2022/05/14 09:44:27;;;;;;;10.38;4.22;;;18.60;99.90;;;;;;5052615;28;20202;-67
2022/05/14 09:47:07;;;;;;;13.60;5.63;;;18.60;1.00;;;;;;5069714;28;20201;-67
2022/05/14 09:49:39;;;;;;;12.88;5.28;;;18.40;1.00;;;;;;5062880;28;20210;-67
2022/05/14 09:52:09;;;;;;;11.95;5.03;;;18.80;99.90;;;;;;5071222;28;20206;-67
2022/05/14 09:54:42;;;;;;;12.43;4.70;;;19.20;99.90;;;;;;5069683;28;20536;-68
2022/05/14 09:57:38;;;;;;;11.60;4.63;;;19.00;79.10;;;;;;5064364;28;20227;-68
2022/05/14 10:00:12;;;;;;;11.82;5.00;;;19.20;17.90;;;;;;5058965;28;20242;-69
2022/05/14 10:03:09;;;;;;;12.60;4.75;;;19.40;1.00;;;;;;5063337;28;20205;-72
2022/05/14 10:05:53;;;;;;;14.05;5.03;;;19.40;1.00;;;;;;5038100;28;20207;-68
2022/05/14 10:08:37;;;;;;;11.07;4.70;;;19.80;1.00;;;;;;5059491;28;20283;-68
2022/05/14 10:11:13;;;;;;;14.20;4.50;;;19.40;1.00;;;;;;5060647;28;20209;-68
2022/05/14 10:13:49;;;;;;;15.43;5.18;;;19.50;1.00;;;;;;5057962;28;20203;-68
2022/05/14 10:16:24;;;;;;;14.18;5.28;;;19.10;1.00;;;;;;5061830;28;20696;-68
2022/05/14 10:19:09;;;;;;;12.95;5.50;;;19.00;1.00;;;;;;5057974;28;20207;-69
2022/05/14 10:21:46;;;;;;;10.95;4.78;;;19.00;1.00;;;;;;5059216;28;20653;-68
2022/05/14 10:27:18;;;;;;;10.82;4.90;;;19.30;1.00;;;;;;5062278;28;20210;-68
2022/05/14 10:30:01;;;;;;;13.52;4.85;;;18.90;1.00;;;;;;5063595;28;20446;-68
2022/05/14 10:32:31;;;;;;;15.43;5.20;;;19.20;1.00;;;;;;5059473;28;20198;-69
2022/05/14 10:35:05;;;;;;;14.90;4.32;;;19.30;99.90;;;;;;5065012;28;20202;-68
2022/05/14 10:37:41;;;;;;;11.25;4.63;;;19.20;99.90;;;;;;5062062;28;20221;-68
2022/05/14 10:40:15;;;;;;;12.18;4.63;;;19.80;99.90;;;;;;5057747;28;20202;-68
2022/05/14 10:42:49;;;;;;;12.45;4.13;;;20.70;99.90;;;;;;5060346;28;20202;-68
2022/05/14 10:45:21;;;;;;;11.57;4.38;;;20.80;1.00;;;;;;5056681;28;20256;-68
2022/05/14 10:47:58;;;;;;;10.13;4.25;;;20.90;1.00;;;;;;5066313;28;20206;-68
2022/05/14 10:50:28;;;;;;;13.77;5.20;;;20.90;1.00;;;;;;5073314;28;20649;-68
2022/05/14 10:52:58;;;;;;;15.00;4.47;;;21.20;1.00;;;;;;5061436;28;20654;-68
2022/05/14 10:55:30;;;;;;;11.73;4.38;;;21.90;1.00;;;;;;5067791;28;20211;-68
2022/05/14 10:58:03;;;;;;;8.05;4.10;;;21.70;1.00;;;;;;5064173;28;20672;-68
2022/05/14 11:00:39;;;;;;;11.00;3.90;;;21.40;1.00;;;;;;5066479;28;20665;-68
2022/05/14 11:03:13;;;;;;;14.30;4.63;;;20.80;1.00;;;;;;5068131;28;20261;-68
2022/05/14 11:05:54;;;;;;;14.13;4.15;;;21.40;1.00;;;;;;5070009;28;20206;-68
2022/05/14 11:08:34;;;;;;;12.73;3.88;;;21.90;1.00;;;;;;5065258;28;20234;-68
2022/05/14 11:11:09;;;;;;;11.68;3.92;;;21.70;1.00;;;;;;5071279;28;20252;-68
2022/05/14 11:13:37;;;;;;;14.80;4.40;;;21.50;1.00;;;;;;5067089;28;20201;-68
2022/05/14 11:16:06;;;;;;;15.20;4.65;;;20.30;1.00;;;;;;5065754;28;20661;-68
2022/05/14 11:18:45;;;;;;;11.15;4.38;;;20.20;1.00;;;;;;5060496;28;20607;-68
2022/05/14 11:21:13;;;;;;;10.82;3.75;;;20.50;1.00;;;;;;5067041;28;20242;-68
2022/05/14 11:23:55;;;;;;;10.77;3.67;;;20.70;1.00;;;;;;5069880;28;20215;-68
2022/05/14 11:26:23;;;;;;;12.98;3.50;;;20.80;1.00;;;;;;5068780;28;20195;-66
2022/05/14 11:29:01;;;;;;;8.43;3.67;;;20.30;1.00;;;;;;5058750;28;20217;-66
2022/05/14 11:31:32;;;;;;;12.68;3.55;;;20.30;1.00;;;;;;5069322;28;20201;-66
2022/05/14 11:34:14;;;;;;;8.38;3.63;;;20.70;1.00;;;;;;5072001;28;20260;-66
2022/05/14 11:36:48;;;;;;;12.00;4.28;;;20.70;1.00;;;;;;5060378;28;20223;-66
2022/05/14 11:39:35;;;;;;;13.60;4.53;;;20.70;1.00;;;;;;5066540;28;20206;-66
2022/05/14 11:42:12;;;;;;;15.30;4.53;;;20.50;1.00;;;;;;5054842;28;20225;-66
2022/05/14 11:44:47;;;;;;;13.02;4.07;;;20.70;1.00;;;;;;5070464;28;20210;-66
2022/05/14 11:47:42;;;;;;;13.05;3.97;;;20.80;1.00;;;;;;5062595;28;20205;-67
2022/05/14 11:50:11;;;;;;;12.45;4.45;;;21.60;1.00;;;;;;5057706;28;20289;-66
2022/05/14 11:52:45;;;;;;;6.35;3.70;;;21.90;1.00;;;;;;5064689;28;20272;-66
2022/05/14 11:55:19;;;;;;;13.63;4.30;;;22.20;1.00;;;;;;5063534;28;20252;-66
2022/05/14 11:57:50;;;;;;;8.90;3.88;;;22.00;1.00;;;;;;5063626;28;20496;-67
2022/05/14 12:00:21;;;;;;;12.90;4.05;;;22.10;1.00;;;;;;5059829;28;20203;-66
2022/05/14 12:02:51;;;;;;;9.82;3.50;;;22.50;1.00;;;;;;5063289;28;20203;-66
2022/05/14 12:05:22;;;;;;;11.98;4.00;;;22.60;99.90;;;;;;5068500;28;20198;-66
2022/05/14 12:08:11;;;;;;;11.52;3.60;;;21.90;99.90;;;;;;5066763;28;20276;-66
2022/05/14 12:10:49;;;;;;;11.00;3.67;;;22.00;99.90;;;;;;5065014;28;20244;-66
2022/05/14 12:13:27;;;;;;;13.57;3.75;;;21.90;99.90;;;;;;5058260;28;20234;-66
2022/05/14 12:15:56;;;;;;;11.35;3.55;;;21.90;99.90;;;;;;5067473;28;20641;-66
2022/05/14 12:18:24;;;;;;;12.35;4.50;;;22.30;99.90;;;;;;5063734;28;20226;-66
2022/05/14 12:20:55;;;;;;;8.55;3.15;;;22.60;99.90;;;;;;5065473;28;20206;-66
2022/05/14 12:23:33;;;;;;;13.18;4.18;;;22.90;99.90;;;;;;5061877;28;20210;-66
2022/05/14 12:26:01;;;;;;;14.25;3.97;;;23.10;99.90;;;;;;5063129;28;20275;-66
2022/05/14 12:28:31;;;;;;;10.13;3.45;;;22.60;99.90;;;;;;5066015;28;20203;-66
2022/05/14 12:33:53;;;;;;;8.70;3.08;;;21.80;99.90;;;;;;5061513;28;20205;-66
2022/05/14 12:36:21;;;;;;;14.48;4.28;;;22.20;99.90;;;;;;5067226;28;20330;-67
2022/05/14 12:38:49;;;;;;;11.02;3.63;;;22.30;99.90;;;;;;5069190;28;20711;-66
2022/05/14 12:41:32;;;;;;;14.32;3.83;;;22.30;99.90;;;;;;5059844;28;20564;-66
2022/05/14 12:44:05;;;;;;;9.73;3.42;;;22.80;99.90;;;;;;5066884;28;20284;-67
2022/05/14 12:46:37;;;;;;;10.93;3.33;;;22.80;99.90;;;;;;5055503;28;20203;-67
2022/05/14 12:49:07;;;;;;;10.10;3.20;;;22.40;99.90;;;;;;5071551;28;20599;-66
2022/05/14 12:51:34;;;;;;;9.85;3.60;;;23.00;99.90;;;;;;5061215;28;20206;-66
2022/05/14 12:54:01;;;;;;;10.30;3.10;;;23.20;99.90;;;;;;5052709;28;20260;-66
2022/05/14 12:56:32;;;;;;;12.93;4.05;;;23.60;99.90;;;;;;5050804;28;20657;-67
2022/05/14 12:59:00;;;;;;;8.07;3.58;;;23.60;99.90;;;;;;5051880;28;20628;-66
2022/05/14 13:01:27;;;;;;;11.45;3.50;;;23.50;99.90;;;;;;5051444;28;20214;-66
2022/05/14 13:03:58;;;;;;;11.00;3.90;;;23.10;99.90;;;;;;5052513;28;20217;-67
2022/05/14 13:06:28;;;;;;;10.52;3.40;;;23.30;99.90;;;;;;5057670;28;20215;-66
2022/05/14 13:08:58;;;;;;;10.82;3.53;;;23.00;99.90;;;;;;5061033;28;20248;-66
2022/05/14 13:11:27;;;;;;;9.77;3.80;;;22.50;99.90;;;;;;5062174;28;20251;-66
2022/05/14 13:13:59;;;;;;;12.30;3.60;;;22.40;99.90;;;;;;5054239;28;20207;-66
2022/05/14 13:16:28;;;;;;;12.57;4.07;;;22.70;99.90;;;;;;5064590;28;20598;-66
2022/05/14 13:19:00;;;;;;;11.43;3.53;;;22.40;99.90;;;;;;5069837;28;20318;-66
2022/05/14 13:21:29;;;;;;;12.65;4.20;;;22.10;99.90;;;;;;5063114;28;20203;-66